Time,TemperatureF,DewpointF,PressureIn,WindDirection,WindDirectionDegrees,WindSpeedMPH,WindSpeedGustMPH,Humidity,HourlyPrecipIn,Conditions,Clouds,dailyrainin,SoftwareType,DateUTC
2013-06-24 00:00:00,57.8,54.5,29.82,SW,218,0.0,1.9,89,0.00,,OVC009,0.00,VWS V14.01,2013-06-24 07:00:00,
2013-06-24 00:05:00,57.7,54.5,29.82,SSW,195,0.0,5.7,89,0.00,,OVC009,0.00,VWS V14.01,2013-06-24 07:05:00,
2013-06-24 00:11:00,57.7,54.2,29.81,WSW,240,1.9,7.6,88,0.00,,OVC009,0.00,VWS V14.01,2013-06-24 07:11:00,
2013-06-24 00:16:00,57.7,54.2,29.81,SSW,198,0.0,0.0,88,0.00,,OVC009,0.00,VWS V14.01,2013-06-24 07:16:00,
2013-06-24 00:21:00,57.8,54.5,29.81,South,181,0.0,1.9,89,0.00,,OVC009,0.00,VWS V14.01,2013-06-24 07:21:00,
2013-06-24 00:27:00,57.7,54.2,29.81,SW,225,1.9,3.8,88,0.00,,OVC009,0.00,VWS V14.01,2013-06-24 07:27:00,
2013-06-24 00:32:00,57.7,54.2,29.81,SSW,208,0.0,5.7,88,0.00,,OVC009,0.00,VWS V14.01,2013-06-24 07:32:00,
2013-06-24 00:38:00,57.6,54.1,29.80,SSW,203,0.0,5.7,88,0.00,,OVC009,0.00,VWS V14.01,2013-06-24 07:38:00,
2013-06-24 00:43:00,57.6,54.1,29.80,SW,231,3.8,5.7,88,0.00,,OVC009,0.00,VWS V14.01,2013-06-24 07:43:00,
2013-06-24 00:48:00,57.5,54.0,29.80,West,269,0.0,5.7,88,0.00,,OVC009,0.00,VWS V14.01,2013-06-24 07:48:00,
2013-06-24 00:53:00,57.5,54.0,29.80,SSW,205,0.0,5.7,88,0.00,,OVC009,0.00,VWS V14.01,2013-06-24 07:53:00,
2013-06-24 00:58:00,57.5,54.0,29.80,SSW,203,0.0,5.7,88,0.00,,OVC009,0.00,VWS V14.01,2013-06-24 07:58:00,
2013-06-24 01:04:00,57.6,54.1,29.80,SSW,197,0.0,5.7,88,0.00,,OVC009,0.00,VWS V14.01,2013-06-24 08:04:00,
2013-06-24 01:10:00,57.6,54.1,29.80,SW,215,0.0,5.7,88,0.00,,OVC009,0.00,VWS V14.01,2013-06-24 08:10:00,
2013-06-24 01:15:00,57.6,54.1,29.80,WSW,252,0.0,0.0,88,0.00,,OVC009,0.00,VWS V14.01,2013-06-24 08:15:00,
2013-06-24 01:22:00,57.6,54.1,29.80,West,262,0.0,5.7,88,0.00,,OVC009,0.00,VWS V14.01,2013-06-24 08:22:00,
2013-06-24 01:27:00,57.6,54.1,29.80,SSW,205,0.0,5.7,88,0.00,,OVC009,0.00,VWS V14.01,2013-06-24 08:27:00,
2013-06-24 01:32:00,57.6,54.1,29.80,West,270,0.0,1.9,88,0.00,,OVC009,0.00,VWS V14.01,2013-06-24 08:32:00,
2013-06-24 01:37:00,57.6,54.1,29.80,West,271,1.9,1.9,88,0.00,,OVC009,0.00,VWS V14.01,2013-06-24 08:37:00,
2013-06-24 01:44:00,57.7,54.2,29.81,SW,226,0.0,1.9,88,0.00,,OVC009,0.00,VWS V14.01,2013-06-24 08:44:00,
2013-06-24 01:50:00,57.6,54.1,29.81,SSW,198,1.9,3.8,88,0.00,,OVC009,0.00,VWS V14.01,2013-06-24 08:50:00,
2013-06-24 01:56:00,57.5,54.0,29.81,SSW,212,1.9,5.7,88,0.00,,OVC009,0.00,VWS V14.01,2013-06-24 08:56:00,
2013-06-24 02:01:00,57.5,54.3,29.81,SW,226,1.9,3.8,89,0.00,,OVC009,0.00,VWS V14.01,2013-06-24 09:01:00,
2013-06-24 02:06:00,57.5,54.3,29.80,SSW,211,0.0,3.8,89,0.00,,OVC009,0.00,VWS V14.01,2013-06-24 09:06:00,
2013-06-24 02:11:00,57.5,54.3,29.80,SW,229,0.0,3.8,89,0.00,,OVC009,0.00,VWS V14.01,2013-06-24 09:11:00,
2013-06-24 02:16:00,57.3,54.1,29.80,South,188,0.0,1.9,89,0.00,,OVC009,0.00,VWS V14.01,2013-06-24 09:16:00,
2013-06-24 02:24:00,57.3,54.1,29.78,ESE,110,0.0,0.0,89,0.00,,OVC009,0.00,VWS V14.01,2013-06-24 09:24:00,
2013-06-24 02:29:00,57.3,54.1,29.78,ESE,118,0.0,1.9,89,0.00,,OVC009,0.00,VWS V14.01,2013-06-24 09:29:00,
2013-06-24 02:34:00,57.2,54.0,29.79,South,183,1.9,3.8,89,0.00,,OVC009,0.00,VWS V14.01,2013-06-24 09:34:00,
2013-06-24 02:39:00,57.1,53.9,29.79,WSW,249,3.8,9.5,89,0.00,,OVC009,0.00,VWS V14.01,2013-06-24 09:39:00,
2013-06-24 02:44:00,57.1,53.9,29.78,SSW,212,0.0,1.9,89,0.00,,OVC011,0.00,VWS V14.01,2013-06-24 09:44:00,
2013-06-24 02:50:00,57.1,53.9,29.78,SW,214,1.9,1.9,89,0.00,,OVC011,0.00,VWS V14.01,2013-06-24 09:50:00,
2013-06-24 02:55:00,57.1,53.9,29.79,SSW,210,0.0,5.7,89,0.00,,OVC011,0.00,VWS V14.01,2013-06-24 09:55:00,
2013-06-24 03:00:00,57.1,53.9,29.79,SSW,212,0.0,1.9,89,0.00,,OVC011,0.00,VWS V14.01,2013-06-24 10:00:00,
2013-06-24 03:05:00,57.1,53.9,29.78,SSW,208,1.9,9.5,89,0.00,,OVC011,0.00,VWS V14.01,2013-06-24 10:05:00,
2013-06-24 03:10:00,57.1,53.9,29.79,East,87,3.8,9.5,89,0.00,,OVC011,0.00,VWS V14.01,2013-06-24 10:10:00,
2013-06-24 03:15:00,57.1,53.9,29.78,SE,141,0.0,0.0,89,0.00,,OVC011,0.00,VWS V14.01,2013-06-24 10:15:00,
2013-06-24 03:20:00,57.2,54.0,29.79,SSW,211,0.0,1.9,89,0.00,,OVC011,0.00,VWS V14.01,2013-06-24 10:20:00,
2013-06-24 03:25:00,57.2,54.0,29.79,SSW,211,0.0,5.7,89,0.00,,OVC011,0.00,VWS V14.01,2013-06-24 10:25:00,
2013-06-24 03:30:00,57.2,54.0,29.79,SW,231,0.0,1.9,89,0.00,,OVC011,0.00,VWS V14.01,2013-06-24 10:30:00,
2013-06-24 03:37:00,57.1,53.9,29.78,SE,144,0.0,3.8,89,0.00,,OVC011,0.00,VWS V14.01,2013-06-24 10:37:00,
2013-06-24 03:42:00,57.2,54.0,29.78,SE,143,0.0,3.8,89,0.00,,OVC011,0.00,VWS V14.01,2013-06-24 10:42:00,
2013-06-24 03:47:00,57.2,54.0,29.78,SE,144,0.0,0.0,89,0.00,,OVC011,0.00,VWS V14.01,2013-06-24 10:47:00,
2013-06-24 03:52:00,57.2,54.0,29.78,SE,144,0.0,1.9,89,0.00,,OVC011,0.00,VWS V14.01,2013-06-24 10:52:00,
2013-06-24 03:57:00,57.3,54.1,29.78,SE,141,0.0,1.9,89,0.00,,OVC011,0.00,VWS V14.01,2013-06-24 10:57:00,
2013-06-24 04:04:00,57.1,53.9,29.78,SW,215,0.0,3.8,89,0.00,,OVC013,0.00,VWS V14.01,2013-06-24 11:04:00,
2013-06-24 04:09:00,57.1,53.9,29.79,SW,217,1.9,3.8,89,0.00,,OVC013,0.00,VWS V14.01,2013-06-24 11:09:00,
2013-06-24 04:15:00,57.0,54.2,29.79,SSW,212,0.0,0.0,90,0.00,,OVC013,0.00,VWS V14.01,2013-06-24 11:15:00,
2013-06-24 04:21:00,57.0,54.2,29.79,WSW,241,1.9,1.9,90,0.00,,OVC013,0.00,VWS V14.01,2013-06-24 11:21:00,
2013-06-24 04:26:00,57.1,54.2,29.79,South,184,0.0,1.9,90,0.00,,OVC013,0.00,VWS V14.01,2013-06-24 11:26:00,
2013-06-24 04:35:00,57.1,54.2,29.80,SSW,207,0.0,1.9,90,0.00,,OVC013,0.00,VWS V14.01,2013-06-24 11:35:00,
2013-06-24 04:41:00,57.2,54.3,29.80,SSW,204,0.0,1.9,90,0.00,,OVC013,0.00,VWS V14.01,2013-06-24 11:41:00,
2013-06-24 04:47:00,57.2,54.3,29.80,South,188,0.0,3.8,90,0.00,,OVC013,0.00,VWS V14.01,2013-06-24 11:47:00,
2013-06-24 04:52:00,57.2,54.3,29.80,South,188,0.0,3.8,90,0.00,,OVC013,0.00,VWS V14.01,2013-06-24 11:52:00,
2013-06-24 04:58:00,57.2,54.3,29.79,SW,226,1.9,3.8,90,0.00,,OVC013,0.00,VWS V14.01,2013-06-24 11:58:00,
2013-06-24 05:05:00,57.1,54.2,29.80,SW,215,1.9,1.9,90,0.00,,OVC013,0.00,VWS V14.01,2013-06-24 12:05:00,
2013-06-24 05:10:00,57.1,54.2,29.80,WSW,246,0.0,1.9,90,0.00,,OVC013,0.00,VWS V14.01,2013-06-24 12:10:00,
2013-06-24 05:15:00,57.0,54.2,29.80,SW,215,1.9,1.9,90,0.00,,OVC013,0.00,VWS V14.01,2013-06-24 12:15:00,
2013-06-24 05:21:00,57.0,54.2,29.80,WSW,242,0.0,3.8,90,0.00,,OVC013,0.00,VWS V14.01,2013-06-24 12:21:00,
2013-06-24 05:26:00,57.0,54.2,29.80,SW,217,0.0,3.8,90,0.00,,OVC013,0.00,VWS V14.01,2013-06-24 12:26:00,
2013-06-24 05:32:00,57.0,54.5,29.80,SSW,207,0.0,1.9,91,0.00,,OVC013,0.00,VWS V14.01,2013-06-24 12:32:00,
2013-06-24 05:37:00,57.0,54.1,29.80,SSW,207,0.0,3.8,90,0.00,,OVC013,0.00,VWS V14.01,2013-06-24 12:37:00,
2013-06-24 05:42:00,57.0,54.4,29.80,SW,215,0.0,3.8,91,0.00,,OVC013,0.00,VWS V14.01,2013-06-24 12:42:00,
2013-06-24 09:36:00,60.7,55.5,29.85,South,170,0.0,0.0,83,0.00,,OVC065,0.00,VWS V14.01,2013-06-24 16:36:00,
2013-06-24 09:42:00,61.0,55.2,29.85,SSW,204,0.0,5.7,81,0.00,,OVC065,0.00,VWS V14.01,2013-06-24 16:42:00,
2013-06-24 09:47:00,60.9,55.1,29.85,SSW,207,0.0,9.5,81,0.00,,OVC065,0.00,VWS V14.01,2013-06-24 16:47:00,
2013-06-24 09:52:00,60.9,55.1,29.86,South,184,0.0,9.5,81,0.00,,OVC065,0.00,VWS V14.01,2013-06-24 16:52:00,
2013-06-24 09:57:00,60.7,55.2,29.86,SSW,204,3.8,9.5,82,0.00,,OVC065,0.00,VWS V14.01,2013-06-24 16:57:00,
2013-06-24 10:03:00,60.7,55.1,29.86,WSW,252,0.0,1.9,82,0.00,,OVC065,0.00,VWS V14.01,2013-06-24 17:03:00,
2013-06-24 10:08:00,60.7,55.1,29.86,SW,231,0.0,1.9,82,0.00,,OVC065,0.00,VWS V14.01,2013-06-24 17:08:00,
2013-06-24 10:13:00,60.7,54.9,29.86,WNW,297,0.0,1.9,81,0.00,,OVC065,0.00,VWS V14.01,2013-06-24 17:13:00,
2013-06-24 10:21:00,60.7,54.9,29.86,South,190,0.0,3.8,81,0.00,,OVC065,0.00,VWS V14.01,2013-06-24 17:21:00,
2013-06-24 10:26:00,60.8,55.3,29.86,SW,236,0.0,3.8,82,0.00,,OVC065,0.00,VWS V14.01,2013-06-24 17:26:00,
2013-06-24 10:31:00,60.9,55.1,29.86,SSW,211,0.0,0.0,81,0.00,,OVC065,0.00,VWS V14.01,2013-06-24 17:31:00,
2013-06-24 10:36:00,61.2,55.3,29.86,West,266,1.9,3.8,81,0.00,,OVC065,0.00,VWS V14.01,2013-06-24 17:36:00,
2013-06-24 10:41:00,61.5,55.6,29.86,SW,231,0.0,3.8,81,0.00,,OVC065,0.00,VWS V14.01,2013-06-24 17:41:00,
2013-06-24 10:47:00,61.7,55.5,29.86,SW,219,0.0,1.9,80,0.00,,OVC065,0.00,VWS V14.01,2013-06-24 17:47:00,
2013-06-24 10:52:00,62.1,55.9,29.87,SE,137,0.0,1.9,80,0.00,,OVC065,0.00,VWS V14.01,2013-06-24 17:52:00,
2013-06-24 10:57:00,62.0,55.8,29.87,NNW,339,0.0,3.8,80,0.00,,OVC065,0.00,VWS V14.01,2013-06-24 17:57:00,
2013-06-24 11:02:00,62.2,55.6,29.87,SSW,212,0.0,1.9,79,0.00,,-RA,0.00,VWS V14.01,2013-06-24 18:02:00,
2013-06-24 11:07:00,62.0,55.8,29.87,SSW,204,0.0,5.7,80,0.00,,-RA,0.00,VWS V14.01,2013-06-24 18:07:00,
2013-06-24 11:12:00,61.8,55.6,29.87,SSW,208,0.0,5.7,80,0.00,,-RA,0.00,VWS V14.01,2013-06-24 18:12:00,
2013-06-24 11:17:00,61.7,56.2,29.87,SW,215,0.0,1.9,82,0.00,,-RA,0.00,VWS V14.01,2013-06-24 18:17:00,
2013-06-24 11:23:00,61.8,56.3,29.87,SSW,193,0.0,1.9,82,0.00,,-RA,0.00,VWS V14.01,2013-06-24 18:23:00,
2013-06-24 11:28:00,62.0,55.4,29.87,SE,145,0.0,7.6,79,0.00,,-RA,0.00,VWS V14.01,2013-06-24 18:28:00,
2013-06-24 11:33:00,62.0,56.1,29.87,WSW,257,0.0,1.9,81,0.00,,-RA,0.00,VWS V14.01,2013-06-24 18:33:00,
2013-06-24 11:38:00,61.9,56.0,29.87,SSW,204,0.0,5.7,81,0.00,,-RA,0.00,VWS V14.01,2013-06-24 18:38:00,
2013-06-24 11:44:00,61.5,55.6,29.87,SSW,203,0.0,5.7,81,0.00,,-RA,0.00,VWS V14.01,2013-06-24 18:44:00,
2013-06-24 11:50:00,61.4,56.5,29.87,South,181,5.7,9.5,84,0.01,,-RA,0.01,VWS V14.01,2013-06-24 18:50:00,
2013-06-24 11:55:00,61.5,57.3,29.87,SW,235,0.0,9.5,86,0.01,,-RA,0.01,VWS V14.01,2013-06-24 18:55:00,
2013-06-24 12:00:00,61.7,57.2,29.87,SW,214,0.0,1.9,85,0.01,,-RA,0.01,VWS V14.01,2013-06-24 19:00:00,
2013-06-24 12:05:00,62.1,57.2,29.87,SSW,207,3.8,3.8,84,0.01,,-RA,0.01,VWS V14.01,2013-06-24 19:05:00,
2013-06-24 12:10:00,62.6,57.4,29.88,SW,214,0.0,7.6,83,0.01,,-RA,0.01,VWS V14.01,2013-06-24 19:10:00,
2013-06-24 12:15:00,63.1,57.5,29.88,SW,231,0.0,5.7,82,0.01,,-RA,0.01,VWS V14.01,2013-06-24 19:15:00,
2013-06-24 12:20:00,63.2,57.2,29.88,SSW,204,0.0,5.7,81,0.01,,-RA,0.01,VWS V14.01,2013-06-24 19:20:00,
2013-06-24 12:26:00,63.2,57.6,29.88,SSW,197,1.9,5.7,82,0.01,,-RA,0.01,VWS V14.01,2013-06-24 19:26:00,
2013-06-24 12:32:00,63.1,56.5,29.88,SSW,201,0.0,3.8,79,0.01,,-RA,0.01,VWS V14.01,2013-06-24 19:32:00,
2013-06-24 12:37:00,62.8,56.6,29.88,SE,131,0.0,3.8,80,0.01,,-RA,0.01,VWS V14.01,2013-06-24 19:37:00,
2013-06-24 12:42:00,62.5,56.5,29.88,ESE,105,0.0,3.8,81,0.01,,-RA,0.01,VWS V14.01,2013-06-24 19:42:00,
2013-06-24 12:49:00,62.0,56.1,29.88,ESE,110,0.0,3.8,81,0.02,,-RA,0.02,VWS V14.01,2013-06-24 19:49:00,
2013-06-24 12:54:00,61.7,56.5,29.88,SW,214,0.0,3.8,83,0.02,,-RA,0.02,VWS V14.01,2013-06-24 19:54:00,
2013-06-24 12:59:00,61.5,56.3,29.88,SW,214,0.0,3.8,83,0.02,,-RA,0.02,VWS V14.01,2013-06-24 19:59:00,
2013-06-24 13:04:00,61.5,57.0,29.88,SW,219,0.0,1.9,85,0.01,,-RA,0.02,VWS V14.01,2013-06-24 20:04:00,
2013-06-24 13:09:00,61.6,56.8,29.88,SW,214,0.0,1.9,84,0.01,,-RA,0.02,VWS V14.01,2013-06-24 20:09:00,
2013-06-24 13:14:00,61.8,57.6,29.87,SE,136,0.0,3.8,86,0.01,,-RA,0.02,VWS V14.01,2013-06-24 20:14:00,
2013-06-24 13:22:00,62.2,56.6,29.87,SSW,212,0.0,3.8,82,0.01,,-RA,0.02,VWS V14.01,2013-06-24 20:22:00,
2013-06-24 13:28:00,62.4,56.8,29.87,SW,225,0.0,3.8,82,0.01,,-RA,0.02,VWS V14.01,2013-06-24 20:28:00,
2013-06-24 13:33:00,62.7,57.2,29.87,West,267,0.0,1.9,82,0.01,,-RA,0.02,VWS V14.01,2013-06-24 20:33:00,
2013-06-24 13:38:00,62.7,57.2,29.87,WNW,288,0.0,3.8,82,0.01,,-RA,0.02,VWS V14.01,2013-06-24 20:38:00,
2013-06-24 13:43:00,62.5,57.3,29.87,WNW,288,0.0,3.8,83,0.02,,-RA,0.03,VWS V14.01,2013-06-24 20:43:00,
2013-06-24 13:49:00,62.5,57.3,29.87,WNW,292,0.0,1.9,83,0.02,,-RA,0.03,VWS V14.01,2013-06-24 20:49:00,
2013-06-24 13:54:00,62.6,58.1,29.88,WSW,255,0.0,1.9,85,0.02,,-RA,0.03,VWS V14.01,2013-06-24 20:54:00,
2013-06-24 13:59:00,62.8,57.9,29.88,SSW,203,1.9,5.7,84,0.03,,-RA,0.04,VWS V14.01,2013-06-24 20:59:00,
2013-06-24 14:04:00,62.9,58.0,29.88,SSW,205,0.0,1.9,84,0.02,,-RA,0.04,VWS V14.01,2013-06-24 21:04:00,
2013-06-24 14:10:00,62.9,57.7,29.88,SW,214,0.0,3.8,83,0.02,,-RA,0.04,VWS V14.01,2013-06-24 21:10:00,
2013-06-24 14:15:00,63.1,57.8,29.88,South,174,0.0,0.0,83,0.02,,-RA,0.04,VWS V14.01,2013-06-24 21:15:00,
2013-06-24 14:20:00,63.3,57.7,29.87,NW,312,0.0,3.8,82,0.02,,-RA,0.04,VWS V14.01,2013-06-24 21:20:00,
2013-06-24 14:25:00,63.3,57.7,29.87,WSW,258,1.9,3.8,82,0.02,,-RA,0.04,VWS V14.01,2013-06-24 21:25:00,
2013-06-24 14:30:00,63.3,57.3,29.87,North,359,0.0,0.0,81,0.02,,-RA,0.04,VWS V14.01,2013-06-24 21:30:00,
2013-06-24 14:36:00,63.5,57.3,29.87,WNW,293,1.9,3.8,80,0.02,,-RA,0.04,VWS V14.01,2013-06-24 21:36:00,
2013-06-24 14:41:00,63.6,58.4,29.87,SSW,200,0.0,3.8,83,0.02,,-RA,0.04,VWS V14.01,2013-06-24 21:41:00,
2013-06-24 14:46:00,63.7,58.1,29.87,SSW,201,0.0,0.0,82,0.02,,-RA,0.04,VWS V14.01,2013-06-24 21:46:00,
2013-06-24 14:51:00,63.6,58.4,29.87,SSW,201,0.0,0.0,83,0.02,,-RA,0.04,VWS V14.01,2013-06-24 21:51:00,
2013-06-24 14:56:00,63.6,58.4,29.87,SSW,203,0.0,0.0,83,0.02,,-RA,0.04,VWS V14.01,2013-06-24 21:56:00,
2013-06-24 15:01:00,63.1,57.5,29.87,West,281,1.9,1.9,82,0.01,,,0.04,VWS V14.01,2013-06-24 22:01:00,
2013-06-24 15:06:00,62.5,57.6,29.87,West,281,0.0,1.9,84,0.01,,,0.04,VWS V14.01,2013-06-24 22:06:00,
2013-06-24 15:11:00,62.3,58.0,29.87,West,278,1.9,1.9,86,0.01,,,0.04,VWS V14.01,2013-06-24 22:11:00,
2013-06-24 15:17:00,62.1,57.9,29.87,West,281,0.0,1.9,86,0.02,,,0.05,VWS V14.01,2013-06-24 22:17:00,
2013-06-24 15:22:00,61.8,57.9,29.88,WNW,284,0.0,3.8,87,0.02,,,0.05,VWS V14.01,2013-06-24 22:22:00,
2013-06-24 15:28:00,61.5,57.7,29.88,SW,232,0.0,3.8,87,0.03,,,0.06,VWS V14.01,2013-06-24 22:28:00,
2013-06-24 15:33:00,61.4,57.8,29.88,West,281,1.9,1.9,88,0.03,,,0.06,VWS V14.01,2013-06-24 22:33:00,
2013-06-24 15:38:00,61.4,58.1,29.88,West,269,0.0,3.8,89,0.03,,,0.06,VWS V14.01,2013-06-24 22:38:00,
2013-06-24 15:44:00,61.6,58.7,29.88,WNW,297,1.9,3.8,90,0.03,,,0.06,VWS V14.01,2013-06-24 22:44:00,
2013-06-24 15:49:00,61.5,57.9,29.88,WNW,288,0.0,5.7,88,0.03,,,0.06,VWS V14.01,2013-06-24 22:49:00,
2013-06-24 15:54:00,61.5,58.3,29.88,ENE,75,0.0,5.7,89,0.03,,,0.06,VWS V14.01,2013-06-24 22:54:00,
2013-06-24 15:59:00,61.4,57.5,29.88,SSW,207,0.0,5.7,87,0.03,,,0.06,VWS V14.01,2013-06-24 22:59:00,
2013-06-24 16:04:00,61.4,57.5,29.88,SSW,207,0.0,1.9,87,0.03,,-RA,0.07,VWS V14.01,2013-06-24 23:04:00,
2013-06-24 16:10:00,61.3,57.7,29.89,West,262,0.0,7.6,88,0.03,,-RA,0.07,VWS V14.01,2013-06-24 23:10:00,
2013-06-24 16:15:00,61.0,57.4,29.88,South,186,1.9,1.9,88,0.02,,-RA,0.07,VWS V14.01,2013-06-24 23:15:00,
2013-06-24 16:25:00,60.6,57.3,29.88,South,188,0.0,3.8,89,0.03,,-RA,0.08,VWS V14.01,2013-06-24 23:25:00,
2013-06-24 16:30:00,60.8,57.9,29.88,SSW,208,0.0,3.8,90,0.02,,-RA,0.08,VWS V14.01,2013-06-24 23:30:00,
2013-06-24 16:36:00,61.1,58.2,29.87,SE,129,0.0,3.8,90,0.02,,-RA,0.08,VWS V14.01,2013-06-24 23:36:00,
2013-06-24 16:41:00,61.2,58.2,29.88,WNW,285,0.0,3.8,90,0.02,,-RA,0.08,VWS V14.01,2013-06-24 23:41:00,
2013-06-24 16:46:00,61.5,58.2,29.88,SSW,210,0.0,1.9,89,0.02,,-RA,0.08,VWS V14.01,2013-06-24 23:46:00,
2013-06-24 16:51:00,61.6,58.1,29.88,WNW,285,1.9,1.9,88,0.02,,-RA,0.08,VWS V14.01,2013-06-24 23:51:00,
2013-06-24 16:56:00,61.4,57.2,29.88,West,280,0.0,1.9,86,0.02,,-RA,0.08,VWS V14.01,2013-06-24 23:56:00,
2013-06-24 17:02:00,61.3,57.1,29.88,SSW,210,0.0,1.9,86,0.02,,,0.08,VWS V14.01,2013-06-25 00:02:00,
2013-06-24 17:07:00,61.1,56.9,29.88,SSW,212,0.0,1.9,86,0.02,,,0.08,VWS V14.01,2013-06-25 00:07:00,
2013-06-24 17:14:00,60.9,57.3,29.88,SW,225,0.0,1.9,88,0.03,,,0.09,VWS V14.01,2013-06-25 00:14:00,
2013-06-24 17:22:00,60.7,56.8,29.88,SW,225,0.0,1.9,87,0.02,,,0.09,VWS V14.01,2013-06-25 00:22:00,
2013-06-24 17:27:00,60.4,56.5,29.88,West,271,0.0,3.8,87,0.02,,,0.09,VWS V14.01,2013-06-25 00:27:00,
2013-06-24 17:32:00,60.2,56.6,29.88,West,273,0.0,1.9,88,0.01,,,0.09,VWS V14.01,2013-06-25 00:32:00,
2013-06-24 17:37:00,60.3,57.0,29.88,West,273,0.0,1.9,89,0.01,,,0.09,VWS V14.01,2013-06-25 00:37:00,
2013-06-24 17:42:00,60.1,56.5,29.88,West,274,0.0,1.9,88,0.01,,,0.09,VWS V14.01,2013-06-25 00:42:00,
2013-06-24 17:47:00,60.1,56.9,29.88,West,274,0.0,1.9,89,0.01,,,0.09,VWS V14.01,2013-06-25 00:47:00,
2013-06-24 17:54:00,60.0,56.8,29.88,West,280,0.0,1.9,89,0.01,,,0.09,VWS V14.01,2013-06-25 00:54:00,
2013-06-24 17:59:00,60.0,57.1,29.87,NE,34,0.0,3.8,90,0.02,,,0.10,VWS V14.01,2013-06-25 00:59:00,
2013-06-24 18:04:00,60.1,57.5,29.87,NNE,25,0.0,1.9,91,0.02,,,0.10,VWS V14.01,2013-06-25 01:04:00,
2013-06-24 18:09:00,60.1,57.2,29.87,NW,308,0.0,1.9,90,0.02,,,0.10,VWS V14.01,2013-06-25 01:09:00,
2013-06-24 18:14:00,60.2,57.3,29.87,NW,309,0.0,1.9,90,0.02,,,0.10,VWS V14.01,2013-06-25 01:14:00,
2013-06-24 18:19:00,60.3,57.3,29.87,NW,309,0.0,1.9,90,0.01,,,0.10,VWS V14.01,2013-06-25 01:19:00,
2013-06-24 18:25:00,60.2,57.3,29.87,East,83,3.8,3.8,90,0.01,,,0.10,VWS V14.01,2013-06-25 01:25:00,
2013-06-24 18:30:00,60.2,57.3,29.87,East,88,0.0,1.9,90,0.01,,,0.10,VWS V14.01,2013-06-25 01:30:00,
2013-06-24 18:35:00,60.1,57.2,29.87,East,98,0.0,3.8,90,0.01,,,0.10,VWS V14.01,2013-06-25 01:35:00,
2013-06-24 18:40:00,59.9,57.0,29.87,East,91,0.0,3.8,90,0.01,,,0.10,VWS V14.01,2013-06-25 01:40:00,
2013-06-24 18:45:00,59.8,56.9,29.87,East,93,0.0,0.0,90,0.01,,,0.10,VWS V14.01,2013-06-25 01:45:00,
2013-06-24 18:50:00,59.8,56.8,29.87,East,93,1.9,1.9,90,0.01,,,0.10,VWS V14.01,2013-06-25 01:50:00,
2013-06-24 18:56:00,59.8,56.9,29.87,East,93,0.0,1.9,90,0.01,,,0.10,VWS V14.01,2013-06-25 01:56:00,
2013-06-24 19:01:00,59.8,56.8,29.87,ENE,63,1.9,1.9,90,0.00,,-RA,0.10,VWS V14.01,2013-06-25 02:01:00,
2013-06-24 19:06:00,59.8,57.1,29.87,ENE,58,0.0,1.9,91,0.00,,-RA,0.10,VWS V14.01,2013-06-25 02:06:00,
2013-06-24 19:11:00,59.8,57.2,29.87,ENE,58,0.0,1.9,91,0.01,,-RA,0.11,VWS V14.01,2013-06-25 02:11:00,
2013-06-24 19:16:00,59.9,57.3,29.87,ENE,58,0.0,0.0,91,0.01,,-RA,0.11,VWS V14.01,2013-06-25 02:16:00,
2013-06-24 19:21:00,59.9,57.3,29.87,ENE,58,0.0,0.0,91,0.01,,-RA,0.11,VWS V14.01,2013-06-25 02:21:00,
2013-06-24 19:28:00,59.9,57.3,29.87,North,11,0.0,1.9,91,0.01,,-RA,0.11,VWS V14.01,2013-06-25 02:28:00,
2013-06-24 19:33:00,59.9,57.3,29.87,NW,309,0.0,1.9,91,0.01,,-RA,0.11,VWS V14.01,2013-06-25 02:33:00,
2013-06-24 19:41:00,59.8,57.5,29.88,NW,309,0.0,1.9,92,0.01,,-RA,0.11,VWS V14.01,2013-06-25 02:41:00,
2013-06-24 19:46:00,59.8,57.4,29.88,NW,309,0.0,0.0,92,0.01,,-RA,0.11,VWS V14.01,2013-06-25 02:46:00,
2013-06-24 19:51:00,59.8,57.4,29.88,NW,309,0.0,0.0,92,0.01,,-RA,0.11,VWS V14.01,2013-06-25 02:51:00,
2013-06-24 19:56:00,59.7,57.3,29.88,NW,309,0.0,0.0,92,0.01,,-RA,0.11,VWS V14.01,2013-06-25 02:56:00,
2013-06-24 20:02:00,59.7,57.3,29.88,NW,309,0.0,0.0,92,0.01,,-RA,0.11,VWS V14.01,2013-06-25 03:02:00,
2013-06-24 20:08:00,59.6,57.2,29.88,NW,309,0.0,0.0,92,0.02,,-RA,0.12,VWS V14.01,2013-06-25 03:08:00,
2013-06-24 20:13:00,59.6,57.2,29.88,NW,309,0.0,0.0,92,0.02,,-RA,0.12,VWS V14.01,2013-06-25 03:13:00,
2013-06-24 20:18:00,59.6,57.2,29.87,NW,309,0.0,0.0,92,0.01,,-RA,0.12,VWS V14.01,2013-06-25 03:18:00,
2013-06-24 20:23:00,59.6,57.2,29.87,NW,309,0.0,0.0,92,0.01,,-RA,0.12,VWS V14.01,2013-06-25 03:23:00,
2013-06-24 20:29:00,59.6,57.2,29.87,East,83,1.9,3.8,92,0.02,,-RA,0.12,VWS V14.01,2013-06-25 03:29:00,
2013-06-24 20:36:00,59.5,57.2,29.87,ENE,59,0.0,3.8,92,0.02,,-RA,0.12,VWS V14.01,2013-06-25 03:36:00,
2013-06-24 20:42:00,59.4,57.4,29.87,ENE,58,1.9,3.8,93,0.02,,-RA,0.12,VWS V14.01,2013-06-25 03:42:00,
2013-06-24 20:48:00,59.4,57.4,29.88,ENE,59,0.0,1.9,93,0.03,,-RA,0.13,VWS V14.01,2013-06-25 03:48:00,
2013-06-24 20:56:00,59.4,57.4,29.88,ENE,70,1.9,3.8,93,0.03,,-RA,0.13,VWS V14.01,2013-06-25 03:56:00,
2013-06-24 21:01:00,59.4,57.4,29.88,ENE,65,0.0,1.9,93,0.04,,-RA,0.14,VWS V14.01,2013-06-25 04:01:00,
2013-06-24 21:02:00,59.3,57.3,29.88,ENE,75,0.0,1.9,93,0.04,,-RA,0.14,VWS V14.01,2013-06-25 04:02:00,
2013-06-24 21:04:00,59.3,57.3,29.88,ENE,75,1.9,1.9,93,0.04,,-RA,0.14,VWS V14.01,2013-06-25 04:04:00,
2013-06-24 21:06:00,59.3,57.3,29.88,ENE,78,1.9,1.9,93,0.04,,-RA,0.14,VWS V14.01,2013-06-25 04:06:00,
2013-06-24 21:07:00,59.3,57.3,29.88,ENE,78,0.0,1.9,93,0.04,,-RA,0.14,VWS V14.01,2013-06-25 04:07:00,
2013-06-24 21:12:00,59.3,57.3,29.88,ENE,78,0.0,1.9,93,0.04,,-RA,0.14,VWS V14.01,2013-06-25 04:12:00,
2013-06-24 21:17:00,59.2,57.2,29.88,ENE,78,0.0,0.0,93,0.03,,-RA,0.14,VWS V14.01,2013-06-25 04:17:00,
2013-06-24 21:22:00,59.2,57.2,29.88,SE,124,0.0,1.9,93,0.04,,-RA,0.15,VWS V14.01,2013-06-25 04:22:00,
2013-06-24 21:27:00,59.2,57.2,29.88,SSW,200,0.0,1.9,93,0.04,,-RA,0.15,VWS V14.01,2013-06-25 04:27:00,
2013-06-24 21:32:00,59.2,57.2,29.88,SSW,200,0.0,0.0,93,0.03,,-RA,0.15,VWS V14.01,2013-06-25 04:32:00,
2013-06-24 21:37:00,59.1,57.1,29.88,SSW,200,0.0,0.0,93,0.03,,-RA,0.15,VWS V14.01,2013-06-25 04:37:00,
2013-06-24 21:42:00,59.1,57.1,29.89,SSW,200,0.0,0.0,93,0.03,,-RA,0.15,VWS V14.01,2013-06-25 04:42:00,
2013-06-24 21:47:00,59.1,57.1,29.88,SW,226,0.0,3.8,93,0.03,,-RA,0.16,VWS V14.01,2013-06-25 04:47:00,
2013-06-24 21:52:00,59.1,57.1,29.89,SW,226,0.0,3.8,93,0.03,,-RA,0.16,VWS V14.01,2013-06-25 04:52:00,
2013-06-24 21:57:00,59.1,57.1,29.89,SW,226,0.0,3.8,93,0.03,,-RA,0.16,VWS V14.01,2013-06-25 04:57:00,
2013-06-24 22:02:00,59.0,57.0,29.89,SW,226,0.0,0.0,93,0.04,,-RA,0.17,VWS V14.01,2013-06-25 05:02:00,
2013-06-24 22:07:00,59.0,57.0,29.89,SW,226,0.0,0.0,93,0.04,,-RA,0.17,VWS V14.01,2013-06-25 05:07:00,
2013-06-24 22:12:00,59.1,57.4,29.89,SW,226,0.0,1.9,94,0.04,,-RA,0.17,VWS V14.01,2013-06-25 05:12:00,
2013-06-24 22:17:00,59.1,57.4,29.89,SW,226,0.0,0.0,94,0.03,,-RA,0.17,VWS V14.01,2013-06-25 05:17:00,
2013-06-24 22:22:00,59.1,57.4,29.89,SW,226,0.0,0.0,94,0.03,,,0.17,VWS V14.01,2013-06-25 05:22:00,
2013-06-24 22:27:00,59.1,57.4,29.89,SSW,211,0.0,1.9,94,0.03,,,0.17,VWS V14.01,2013-06-25 05:27:00,
2013-06-24 22:32:00,59.2,57.5,29.89,ESE,113,0.0,1.9,94,0.02,,,0.17,VWS V14.01,2013-06-25 05:32:00,
2013-06-24 22:37:00,59.2,57.5,29.89,ESE,107,1.9,1.9,94,0.02,,,0.17,VWS V14.01,2013-06-25 05:37:00,
2013-06-24 22:42:00,59.2,57.5,29.89,East,82,0.0,5.7,94,0.02,,,0.17,VWS V14.01,2013-06-25 05:42:00,
2013-06-24 22:47:00,59.3,57.6,29.89,ESE,112,1.9,3.8,94,0.01,,,0.17,VWS V14.01,2013-06-25 05:47:00,
2013-06-24 22:52:00,59.3,57.6,29.89,ENE,63,0.0,3.8,94,0.01,,,0.17,VWS V14.01,2013-06-25 05:52:00,
2013-06-24 22:58:00,59.3,57.6,29.89,ENE,58,1.9,3.8,94,0.02,,,0.18,VWS V14.01,2013-06-25 05:58:00,
2013-06-24 23:03:00,59.2,57.5,29.89,NE,41,0.0,1.9,94,0.02,,-RA,0.18,VWS V14.01,2013-06-25 06:03:00,
2013-06-24 23:08:00,59.3,57.6,29.89,NE,41,0.0,1.9,94,0.02,,-RA,0.18,VWS V14.01,2013-06-25 06:08:00,
2013-06-24 23:13:00,59.3,57.6,29.89,ENE,66,1.9,3.8,94,0.02,,-RA,0.18,VWS V14.01,2013-06-25 06:13:00,
2013-06-24 23:18:00,59.3,57.6,29.88,ENE,67,0.0,1.9,94,0.01,,-RA,0.18,VWS V14.01,2013-06-25 06:18:00,
2013-06-24 23:23:00,59.3,57.6,29.88,ENE,67,1.9,1.9,94,0.01,,-RA,0.18,VWS V14.01,2013-06-25 06:23:00,
2013-06-24 23:28:00,59.2,57.5,29.88,North,6,0.0,1.9,94,0.01,,-RA,0.18,VWS V14.01,2013-06-25 06:28:00,
2013-06-24 23:33:00,59.2,57.5,29.88,North,9,0.0,0.0,94,0.01,,-RA,0.18,VWS V14.01,2013-06-25 06:33:00,
2013-06-24 23:38:00,59.2,57.5,29.88,North,9,0.0,0.0,94,0.01,,-RA,0.18,VWS V14.01,2013-06-25 06:38:00,
2013-06-24 23:43:00,59.2,57.5,29.88,North,9,0.0,1.9,94,0.01,,,0.18,VWS V14.01,2013-06-25 06:43:00,
2013-06-24 23:48:00,59.3,57.6,29.88,North,9,0.0,0.0,94,0.01,,,0.18,VWS V14.01,2013-06-25 06:48:00,
2013-06-24 23:53:00,59.3,57.6,29.87,ESE,120,1.9,1.9,94,0.01,,,0.18,VWS V14.01,2013-06-25 06:53:00,
2013-06-24 23:58:00,59.3,57.6,29.87,ESE,117,0.0,1.9,94,0.01,,,0.18,VWS V14.01,2013-06-25 06:58:00,